EJU501L LIMC-LICC
Flight info
| Callsign | EJU501L |
|---|---|
| Flight time | 1h 31m |
| Altitude | 37000 |
| Route | ROBAS DCT BEROK DCT TINKU DCT LURON DCT BEKIV DCT ENEPA/N0393F190 M871 LIBRO |
| Aircraft | A320/M-SDE3FGHIRWY/LB1 |
Departure
| Time | 2026-05-05 21:18 |
|---|---|
| Airport | Milan Malpensa International Airport (LIMC) |
Arrival
| Time | 2026-05-05 22:50 |
|---|---|
| Airport | Catania-Fontanarossa Airport (LICC) |
| Time | Latitude | Longitude | Altitude | Speed | Heading |
|---|---|---|---|---|---|
| 2026-05-05 19:49 | 45.64602 | 8.72206 | 731 ft | 0 kts | 79° |
| 2026-05-05 20:49 | 45.64599 | 8.72185 | 754 ft | 4 kts | 81° |
| 2026-05-05 20:49 | 45.64596 | 8.72147 | 755 ft | 4 kts | 89° |
| 2026-05-05 20:49 | 45.64598 | 8.72110 | 755 ft | 4 kts | 114° |
| 2026-05-05 20:50 | 45.64611 | 8.72089 | 753 ft | 1 kts | 169° |
| 2026-05-05 20:50 | 45.64616 | 8.72088 | 754 ft | 1 kts | 169° |
| 2026-05-05 20:55 | 45.64612 | 8.72089 | 755 ft | 2 kts | 169° |
| 2026-05-05 20:55 | 45.64576 | 8.72099 | 757 ft | 8 kts | 169° |
| 2026-05-05 20:55 | 45.64517 | 8.72115 | 759 ft | 10 kts | 169° |
| 2026-05-05 20:55 | 45.64451 | 8.72149 | 758 ft | 9 kts | 140° |
| 2026-05-05 20:56 | 45.64425 | 8.72236 | 754 ft | 10 kts | 84° |
| 2026-05-05 20:56 | 45.64438 | 8.72332 | 758 ft | 10 kts | 79° |
| 2026-05-05 20:56 | 45.64425 | 8.72421 | 756 ft | 10 kts | 144° |
| 2026-05-05 20:56 | 45.64345 | 8.72448 | 756 ft | 14 kts | 168° |
| 2026-05-05 20:57 | 45.64207 | 8.72487 | 755 ft | 16 kts | 169° |
| 2026-05-05 20:57 | 45.64151 | 8.72503 | 757 ft | 13 kts | 169° |
| 2026-05-05 20:57 | 45.64053 | 8.72534 | 757 ft | 16 kts | 163° |
| 2026-05-05 20:57 | 45.63931 | 8.72571 | 756 ft | 20 kts | 169° |
| 2026-05-05 20:58 | 45.63783 | 8.72612 | 756 ft | 23 kts | 169° |
| 2026-05-05 20:58 | 45.63617 | 8.72658 | 755 ft | 19 kts | 168° |
| 2026-05-05 20:58 | 45.63558 | 8.72675 | 754 ft | 0 kts | 169° |
| 2026-05-05 20:59 | 45.63555 | 8.72676 | 755 ft | 2 kts | 169° |
| 2026-05-05 21:00 | 45.63534 | 8.72682 | 759 ft | 4 kts | 168° |
| 2026-05-05 21:00 | 45.63490 | 8.72695 | 759 ft | 10 kts | 168° |
| 2026-05-05 21:00 | 45.63403 | 8.72719 | 759 ft | 16 kts | 169° |
| 2026-05-05 21:00 | 45.63276 | 8.72753 | 758 ft | 21 kts | 169° |
| 2026-05-05 21:01 | 45.63122 | 8.72795 | 757 ft | 24 kts | 168° |
| 2026-05-05 21:01 | 45.62946 | 8.72845 | 756 ft | 24 kts | 168° |
| 2026-05-05 21:01 | 45.62823 | 8.72879 | 759 ft | 18 kts | 169° |
| 2026-05-05 21:01 | 45.62689 | 8.72916 | 757 ft | 21 kts | 169° |
| 2026-05-05 21:02 | 45.62531 | 8.72960 | 759 ft | 25 kts | 169° |
| 2026-05-05 21:02 | 45.62373 | 8.73003 | 755 ft | 15 kts | 169° |
| 2026-05-05 21:02 | 45.62256 | 8.73035 | 759 ft | 19 kts | 169° |
| 2026-05-05 21:02 | 45.62114 | 8.73074 | 758 ft | 23 kts | 169° |
| 2026-05-05 21:03 | 45.61952 | 8.73119 | 755 ft | 21 kts | 169° |
| 2026-05-05 21:03 | 45.61859 | 8.73144 | 757 ft | 11 kts | 169° |
| 2026-05-05 21:03 | 45.61782 | 8.73168 | 759 ft | 8 kts | 161° |
| 2026-05-05 21:03 | 45.61736 | 8.73225 | 757 ft | 10 kts | 126° |
| 2026-05-05 21:04 | 45.61711 | 8.73277 | 758 ft | 5 kts | 124° |
| 2026-05-05 21:04 | 45.61708 | 8.73284 | 759 ft | 0 kts | 123° |
| 2026-05-05 21:07 | 45.61707 | 8.73285 | 757 ft | 0 kts | 123° |
| 2026-05-05 21:07 | 45.61706 | 8.73288 | 757 ft | 0 kts | 123° |
| 2026-05-05 21:08 | 45.61704 | 8.73291 | 757 ft | 0 kts | 123° |
| 2026-05-05 21:08 | 45.61704 | 8.73292 | 757 ft | 0 kts | 123° |
| 2026-05-05 21:10 | 45.61704 | 8.73293 | 760 ft | 1 kts | 123° |
| 2026-05-05 21:10 | 45.61697 | 8.73307 | 756 ft | 2 kts | 123° |
| 2026-05-05 21:10 | 45.61689 | 8.73324 | 757 ft | 2 kts | 124° |
| 2026-05-05 21:10 | 45.61682 | 8.73339 | 759 ft | 2 kts | 124° |
| 2026-05-05 21:11 | 45.61667 | 8.73369 | 757 ft | 5 kts | 125° |
| 2026-05-05 21:11 | 45.61647 | 8.73410 | 754 ft | 5 kts | 125° |
| 2026-05-05 21:11 | 45.61640 | 8.73426 | 758 ft | 0 kts | 125° |
| 2026-05-05 21:12 | 45.61634 | 8.73437 | 758 ft | 2 kts | 125° |
| 2026-05-05 21:12 | 45.61625 | 8.73457 | 756 ft | 4 kts | 124° |
| 2026-05-05 21:13 | 45.61611 | 8.73486 | 755 ft | 3 kts | 124° |
| 2026-05-05 21:13 | 45.61608 | 8.73491 | 755 ft | 0 kts | 122° |
| 2026-05-05 21:14 | 45.61607 | 8.73493 | 755 ft | 1 kts | 122° |
| 2026-05-05 21:14 | 45.61596 | 8.73522 | 757 ft | 6 kts | 114° |
| 2026-05-05 21:15 | 45.61587 | 8.73576 | 756 ft | 1 kts | 98° |
| 2026-05-05 21:17 | 45.61586 | 8.73616 | 759 ft | 9 kts | 85° |
| 2026-05-05 21:17 | 45.61604 | 8.73716 | 759 ft | 7 kts | 72° |
| 2026-05-05 21:17 | 45.61646 | 8.73730 | 758 ft | 8 kts | 349° |
| 2026-05-05 21:17 | 45.61750 | 8.73701 | 756 ft | 34 kts | 348° |
| 2026-05-05 21:18 | 45.62250 | 8.73563 | 755 ft | 108 kts | 349° |
| 2026-05-05 21:18 | 45.63179 | 8.73305 | 757 ft | 161 kts | 349° |
| 2026-05-05 21:18 | 45.64357 | 8.73006 | 1245 ft | 174 kts | 356° |
| 2026-05-05 21:18 | 45.65508 | 8.73399 | 1943 ft | 180 kts | 36° |
| 2026-05-05 21:19 | 45.66262 | 8.74895 | 2336 ft | 197 kts | 74° |
| 2026-05-05 21:19 | 45.66791 | 8.76760 | 2958 ft | 209 kts | 53° |
| 2026-05-05 21:19 | 45.67869 | 8.78208 | 3728 ft | 215 kts | 40° |
| 2026-05-05 21:19 | 45.69049 | 8.79531 | 4553 ft | 217 kts | 39° |
| 2026-05-05 21:20 | 45.70255 | 8.80858 | 5395 ft | 220 kts | 39° |
| 2026-05-05 21:20 | 45.71472 | 8.82220 | 6178 ft | 226 kts | 39° |
| 2026-05-05 21:20 | 45.72566 | 8.83956 | 6444 ft | 242 kts | 68° |
| 2026-05-05 21:20 | 45.72742 | 8.86309 | 6691 ft | 241 kts | 107° |
| 2026-05-05 21:21 | 45.71898 | 8.88334 | 6915 ft | 244 kts | 135° |
| 2026-05-05 21:21 | 45.70758 | 8.90335 | 6986 ft | 270 kts | 119° |
| 2026-05-05 21:21 | 45.70254 | 8.92948 | 7008 ft | 277 kts | 97° |
| 2026-05-05 21:21 | 45.70134 | 8.95709 | 6996 ft | 279 kts | 94° |
| 2026-05-05 21:22 | 45.70057 | 8.98480 | 6996 ft | 279 kts | 94° |
| 2026-05-05 21:22 | 45.69983 | 9.01256 | 6996 ft | 279 kts | 94° |
| 2026-05-05 21:22 | 45.69910 | 9.04027 | 6993 ft | 279 kts | 94° |
| 2026-05-05 21:22 | 45.69844 | 9.06826 | 7375 ft | 283 kts | 94° |
| 2026-05-05 21:23 | 45.69475 | 9.09592 | 8321 ft | 284 kts | 115° |
| 2026-05-05 21:23 | 45.68399 | 9.11933 | 9251 ft | 283 kts | 138° |
| 2026-05-05 21:23 | 45.66924 | 9.13826 | 10170 ft | 287 kts | 141° |
| 2026-05-05 21:23 | 45.65355 | 9.15773 | 10593 ft | 310 kts | 142° |
| 2026-05-05 21:24 | 45.63685 | 9.17829 | 11231 ft | 322 kts | 142° |
| 2026-05-05 21:24 | 45.61975 | 9.19946 | 11979 ft | 330 kts | 142° |
| 2026-05-05 21:24 | 45.60254 | 9.22086 | 12231 ft | 331 kts | 142° |
| 2026-05-05 21:24 | 45.58519 | 9.24250 | 12484 ft | 331 kts | 142° |
| 2026-05-05 21:25 | 45.56782 | 9.26416 | 12748 ft | 333 kts | 142° |
| 2026-05-05 21:25 | 45.55032 | 9.28596 | 13057 ft | 336 kts | 142° |
| 2026-05-05 21:25 | 45.53258 | 9.30801 | 13891 ft | 340 kts | 142° |
| 2026-05-05 21:25 | 45.51464 | 9.33030 | 14648 ft | 343 kts | 142° |
| 2026-05-05 21:26 | 45.49655 | 9.35278 | 15410 ft | 346 kts | 143° |
| 2026-05-05 21:26 | 45.47824 | 9.37549 | 16232 ft | 350 kts | 143° |
| 2026-05-05 21:26 | 45.45976 | 9.39835 | 16953 ft | 354 kts | 144° |
| 2026-05-05 21:26 | 45.44108 | 9.42142 | 17698 ft | 357 kts | 144° |
| 2026-05-05 21:27 | 45.42220 | 9.44474 | 18417 ft | 361 kts | 144° |
| 2026-05-05 21:27 | 45.40205 | 9.46560 | 19024 ft | 357 kts | 157° |
| 2026-05-05 21:27 | 45.37991 | 9.48187 | 19661 ft | 358 kts | 158° |
| 2026-05-05 21:27 | 45.35766 | 9.49797 | 20320 ft | 360 kts | 159° |
| 2026-05-05 21:28 | 45.33530 | 9.51407 | 20971 ft | 362 kts | 159° |
| 2026-05-05 21:28 | 45.31274 | 9.53026 | 21623 ft | 364 kts | 159° |
| 2026-05-05 21:28 | 45.29006 | 9.54649 | 22262 ft | 366 kts | 159° |
| 2026-05-05 21:28 | 45.26755 | 9.56262 | 22878 ft | 368 kts | 159° |
| 2026-05-05 21:29 | 45.24460 | 9.57908 | 23500 ft | 371 kts | 159° |
| 2026-05-05 21:29 | 45.22146 | 9.59565 | 24019 ft | 373 kts | 160° |
| 2026-05-05 21:29 | 45.19815 | 9.61229 | 24502 ft | 376 kts | 160° |
| 2026-05-05 21:29 | 45.17463 | 9.62907 | 24995 ft | 379 kts | 160° |
| 2026-05-05 21:30 | 45.15096 | 9.64596 | 25443 ft | 382 kts | 160° |
| 2026-05-05 21:30 | 45.12714 | 9.66315 | 25897 ft | 386 kts | 160° |
| 2026-05-05 21:30 | 45.10312 | 9.68062 | 26349 ft | 390 kts | 160° |
| 2026-05-05 21:30 | 45.07894 | 9.69833 | 26803 ft | 393 kts | 161° |
| 2026-05-05 21:31 | 45.05456 | 9.71623 | 27250 ft | 396 kts | 161° |
| 2026-05-05 21:31 | 45.03797 | 9.72837 | 27559 ft | 398 kts | 161° |
| 2026-05-05 21:31 | 45.01323 | 9.74636 | 28007 ft | 401 kts | 161° |
| 2026-05-05 21:31 | 44.98832 | 9.76447 | 28442 ft | 404 kts | 161° |
| 2026-05-05 21:32 | 44.96351 | 9.78245 | 28852 ft | 407 kts | 162° |
| 2026-05-05 21:32 | 44.93821 | 9.80073 | 29283 ft | 410 kts | 162° |
| 2026-05-05 21:32 | 44.91274 | 9.81914 | 29698 ft | 413 kts | 162° |
| 2026-05-05 21:32 | 44.88707 | 9.83770 | 30099 ft | 416 kts | 162° |
| 2026-05-05 21:33 | 44.86091 | 9.85654 | 30461 ft | 418 kts | 162° |
| 2026-05-05 21:33 | 44.83492 | 9.87523 | 30834 ft | 420 kts | 162° |
| 2026-05-05 21:33 | 44.80885 | 9.89398 | 31185 ft | 422 kts | 162° |
| 2026-05-05 21:33 | 44.78266 | 9.91289 | 31464 ft | 424 kts | 162° |
| 2026-05-05 21:34 | 44.75638 | 9.93184 | 31818 ft | 424 kts | 162° |
| 2026-05-05 21:34 | 44.73020 | 9.95072 | 32324 ft | 422 kts | 162° |
| 2026-05-05 21:34 | 44.70410 | 9.96941 | 32845 ft | 419 kts | 163° |
| 2026-05-05 21:34 | 44.67786 | 9.98673 | 33323 ft | 414 kts | 166° |
| 2026-05-05 21:35 | 44.65153 | 10.00264 | 33808 ft | 410 kts | 167° |
| 2026-05-05 21:35 | 44.62518 | 10.01766 | 34234 ft | 408 kts | 168° |
| 2026-05-05 21:35 | 44.59884 | 10.03237 | 34572 ft | 408 kts | 168° |
| 2026-05-05 21:35 | 44.57248 | 10.04718 | 34916 ft | 409 kts | 167° |
| 2026-05-05 21:36 | 44.54612 | 10.06229 | 35211 ft | 410 kts | 167° |
| 2026-05-05 21:36 | 44.51966 | 10.07770 | 35445 ft | 413 kts | 166° |
| 2026-05-05 21:36 | 44.49311 | 10.09328 | 35751 ft | 414 kts | 166° |
| 2026-05-05 21:36 | 44.46652 | 10.10900 | 36079 ft | 415 kts | 166° |
| 2026-05-05 21:37 | 44.43993 | 10.12473 | 36414 ft | 415 kts | 165° |
| 2026-05-05 21:37 | 44.41329 | 10.14051 | 36692 ft | 416 kts | 165° |
| 2026-05-05 21:37 | 44.38663 | 10.15624 | 36936 ft | 417 kts | 165° |
| 2026-05-05 21:37 | 44.35990 | 10.17195 | 37008 ft | 415 kts | 165° |
| 2026-05-05 21:38 | 44.30622 | 10.20330 | 37013 ft | 425 kts | 165° |
| 2026-05-05 21:38 | 44.25092 | 10.23537 | 36996 ft | 434 kts | 165° |
| 2026-05-05 21:39 | 44.19513 | 10.26790 | 36996 ft | 435 kts | 165° |
| 2026-05-05 21:39 | 44.13932 | 10.30041 | 36978 ft | 435 kts | 165° |
| 2026-05-05 21:40 | 44.08333 | 10.33307 | 37028 ft | 437 kts | 165° |
| 2026-05-05 21:40 | 44.02733 | 10.36578 | 37031 ft | 436 kts | 165° |
| 2026-05-05 21:41 | 43.97125 | 10.39827 | 37026 ft | 437 kts | 165° |
| 2026-05-05 21:41 | 43.91517 | 10.43066 | 37026 ft | 437 kts | 165° |
| 2026-05-05 21:42 | 43.85899 | 10.46319 | 37013 ft | 438 kts | 165° |
| 2026-05-05 21:42 | 43.80272 | 10.49560 | 37009 ft | 438 kts | 165° |
| 2026-05-05 21:43 | 43.74642 | 10.52791 | 37013 ft | 438 kts | 165° |
| 2026-05-05 21:43 | 43.69003 | 10.56030 | 36995 ft | 439 kts | 165° |
| 2026-05-05 21:44 | 43.63359 | 10.59267 | 36970 ft | 440 kts | 165° |
| 2026-05-05 21:44 | 43.57690 | 10.62516 | 36977 ft | 442 kts | 165° |
| 2026-05-05 21:45 | 43.52000 | 10.65776 | 36970 ft | 443 kts | 165° |
| 2026-05-05 21:45 | 43.46296 | 10.69022 | 36979 ft | 444 kts | 165° |
| 2026-05-05 21:46 | 43.40586 | 10.72259 | 36987 ft | 444 kts | 165° |
| 2026-05-05 21:46 | 43.34878 | 10.75492 | 36997 ft | 444 kts | 165° |
| 2026-05-05 21:47 | 43.29169 | 10.78731 | 36995 ft | 443 kts | 165° |
| 2026-05-05 21:47 | 43.23472 | 10.81954 | 37006 ft | 442 kts | 165° |
| 2026-05-05 21:48 | 43.17777 | 10.85159 | 37015 ft | 442 kts | 165° |
| 2026-05-05 21:48 | 43.12085 | 10.88360 | 37022 ft | 442 kts | 165° |
| 2026-05-05 21:49 | 43.06393 | 10.91556 | 37013 ft | 442 kts | 166° |
| 2026-05-05 21:49 | 43.00711 | 10.94737 | 37018 ft | 441 kts | 166° |
| 2026-05-05 21:50 | 42.95032 | 10.97909 | 37023 ft | 441 kts | 166° |
| 2026-05-05 21:50 | 42.89351 | 11.01086 | 36997 ft | 441 kts | 165° |
| 2026-05-05 21:51 | 42.83674 | 11.04255 | 37015 ft | 441 kts | 165° |
| 2026-05-05 21:51 | 42.78000 | 11.07418 | 37022 ft | 441 kts | 165° |
| 2026-05-05 21:52 | 42.69478 | 11.12136 | 37026 ft | 441 kts | 166° |
| 2026-05-05 21:53 | 42.63793 | 11.15278 | 36998 ft | 441 kts | 165° |
| 2026-05-05 21:53 | 42.58100 | 11.18416 | 37003 ft | 442 kts | 165° |
| 2026-05-05 21:54 | 42.52399 | 11.21565 | 37008 ft | 443 kts | 165° |
| 2026-05-05 21:54 | 42.46689 | 11.24714 | 37004 ft | 443 kts | 165° |
| 2026-05-05 21:55 | 42.40964 | 11.27844 | 36999 ft | 444 kts | 165° |
| 2026-05-05 21:55 | 42.35229 | 11.30980 | 36999 ft | 445 kts | 165° |
| 2026-05-05 21:56 | 42.29488 | 11.34124 | 37004 ft | 446 kts | 165° |
| 2026-05-05 21:56 | 42.23734 | 11.37268 | 37011 ft | 447 kts | 165° |
| 2026-05-05 21:57 | 42.17964 | 11.40413 | 37018 ft | 447 kts | 165° |
| 2026-05-05 21:57 | 42.12189 | 11.43548 | 37020 ft | 448 kts | 165° |
| 2026-05-05 21:58 | 42.06406 | 11.46675 | 37036 ft | 448 kts | 165° |
| 2026-05-05 21:58 | 42.00631 | 11.49805 | 37024 ft | 447 kts | 165° |
| 2026-05-05 21:59 | 41.94861 | 11.52935 | 37038 ft | 447 kts | 165° |
| 2026-05-05 21:59 | 41.89098 | 11.56046 | 37052 ft | 447 kts | 165° |
| 2026-05-05 22:00 | 41.83330 | 11.59151 | 37050 ft | 446 kts | 165° |
| 2026-05-05 22:00 | 41.77575 | 11.62246 | 37059 ft | 445 kts | 164° |
| 2026-05-05 22:01 | 41.71845 | 11.65323 | 37065 ft | 443 kts | 164° |
| 2026-05-05 22:01 | 41.66139 | 11.68375 | 37050 ft | 441 kts | 164° |
| 2026-05-05 22:02 | 41.60436 | 11.71405 | 37048 ft | 440 kts | 165° |
| 2026-05-05 22:02 | 41.54739 | 11.74431 | 37034 ft | 441 kts | 164° |
| 2026-05-05 22:03 | 41.49042 | 11.77466 | 37049 ft | 441 kts | 164° |
| 2026-05-05 22:03 | 41.43348 | 11.80498 | 37052 ft | 441 kts | 164° |
| 2026-05-05 22:04 | 41.37650 | 11.83521 | 37052 ft | 441 kts | 164° |
| 2026-05-05 22:04 | 41.31950 | 11.86541 | 37036 ft | 441 kts | 164° |
| 2026-05-05 22:05 | 41.26254 | 11.89546 | 37042 ft | 440 kts | 164° |
| 2026-05-05 22:05 | 41.20559 | 11.92547 | 37049 ft | 440 kts | 164° |
| 2026-05-05 22:06 | 41.14870 | 11.95542 | 37035 ft | 440 kts | 163° |
| 2026-05-05 22:06 | 41.09178 | 11.98518 | 37043 ft | 440 kts | 164° |
| 2026-05-05 22:07 | 41.03481 | 12.01496 | 37043 ft | 440 kts | 164° |
| 2026-05-05 22:07 | 40.97789 | 12.04482 | 37032 ft | 440 kts | 164° |
| 2026-05-05 22:08 | 40.92052 | 12.07479 | 37034 ft | 441 kts | 163° |
| 2026-05-05 22:08 | 40.86380 | 12.10436 | 37037 ft | 441 kts | 163° |
| 2026-05-05 22:09 | 40.80661 | 12.13412 | 37043 ft | 442 kts | 163° |
| 2026-05-05 22:09 | 40.75869 | 12.15903 | 37050 ft | 442 kts | 163° |
| 2026-05-05 22:10 | 40.70142 | 12.18865 | 37060 ft | 442 kts | 163° |
| 2026-05-05 22:10 | 40.64415 | 12.21829 | 37055 ft | 442 kts | 163° |
| 2026-05-05 22:11 | 40.58693 | 12.24785 | 37063 ft | 442 kts | 163° |
| 2026-05-05 22:11 | 40.52971 | 12.27735 | 37066 ft | 442 kts | 163° |
| 2026-05-05 22:12 | 40.47250 | 12.30687 | 37050 ft | 441 kts | 163° |
| 2026-05-05 22:12 | 40.41534 | 12.33628 | 37065 ft | 441 kts | 163° |
| 2026-05-05 22:13 | 40.35818 | 12.36554 | 37074 ft | 441 kts | 163° |
| 2026-05-05 22:13 | 40.30100 | 12.39480 | 37076 ft | 441 kts | 163° |
| 2026-05-05 22:14 | 40.24382 | 12.42394 | 37059 ft | 441 kts | 163° |
| 2026-05-05 22:14 | 40.18654 | 12.45314 | 37040 ft | 442 kts | 163° |
| 2026-05-05 22:15 | 40.12908 | 12.48234 | 37046 ft | 443 kts | 163° |
| 2026-05-05 22:15 | 40.07153 | 12.51157 | 37054 ft | 444 kts | 163° |
| 2026-05-05 22:16 | 40.01398 | 12.54082 | 37057 ft | 444 kts | 163° |
| 2026-05-05 22:16 | 39.95631 | 12.57007 | 37063 ft | 445 kts | 163° |
| 2026-05-05 22:17 | 39.89861 | 12.59918 | 37065 ft | 445 kts | 163° |
| 2026-05-05 22:17 | 39.84089 | 12.62824 | 37074 ft | 445 kts | 163° |
| 2026-05-05 22:18 | 39.78317 | 12.65730 | 37076 ft | 445 kts | 163° |
| 2026-05-05 22:18 | 39.72546 | 12.68636 | 37076 ft | 445 kts | 163° |
| 2026-05-05 22:19 | 39.66779 | 12.71533 | 37076 ft | 444 kts | 163° |
| 2026-05-05 22:19 | 39.61010 | 12.74419 | 37078 ft | 444 kts | 163° |
| 2026-05-05 22:20 | 39.55239 | 12.77301 | 37066 ft | 444 kts | 163° |
| 2026-05-05 22:20 | 39.49469 | 12.80193 | 37054 ft | 445 kts | 163° |
| 2026-05-05 22:21 | 39.43649 | 12.83089 | 37060 ft | 445 kts | 163° |
| 2026-05-05 22:21 | 39.37900 | 12.85941 | 37064 ft | 445 kts | 163° |
| 2026-05-05 22:22 | 39.32076 | 12.88834 | 37071 ft | 446 kts | 163° |
| 2026-05-05 22:22 | 39.26284 | 12.91701 | 37071 ft | 446 kts | 163° |
| 2026-05-05 22:23 | 39.20495 | 12.94572 | 37073 ft | 446 kts | 163° |
| 2026-05-05 22:23 | 39.14701 | 12.97435 | 37076 ft | 446 kts | 163° |
| 2026-05-05 22:24 | 39.08906 | 13.00289 | 37072 ft | 446 kts | 163° |
| 2026-05-05 22:24 | 39.03109 | 13.03141 | 37064 ft | 446 kts | 163° |
| 2026-05-05 22:25 | 38.97310 | 13.05992 | 37068 ft | 446 kts | 163° |
| 2026-05-05 22:25 | 38.91506 | 13.08833 | 37067 ft | 446 kts | 163° |
| 2026-05-05 22:26 | 38.85706 | 13.11673 | 37070 ft | 447 kts | 162° |
| 2026-05-05 22:26 | 38.79967 | 13.14775 | 37027 ft | 449 kts | 159° |
| 2026-05-05 22:26 | 38.77119 | 13.16436 | 36758 ft | 450 kts | 159° |
| 2026-05-05 22:27 | 38.74274 | 13.18121 | 36500 ft | 450 kts | 159° |
| 2026-05-05 22:27 | 38.71430 | 13.19797 | 36248 ft | 450 kts | 159° |
| 2026-05-05 22:27 | 38.68575 | 13.21456 | 35991 ft | 450 kts | 159° |
| 2026-05-05 22:27 | 38.65713 | 13.23095 | 35739 ft | 451 kts | 159° |
| 2026-05-05 22:28 | 38.62846 | 13.24716 | 35486 ft | 451 kts | 160° |
| 2026-05-05 22:28 | 38.59976 | 13.26334 | 35240 ft | 451 kts | 160° |
| 2026-05-05 22:28 | 38.57102 | 13.27951 | 34984 ft | 452 kts | 159° |
| 2026-05-05 22:28 | 38.54305 | 13.29526 | 34741 ft | 452 kts | 159° |
| 2026-05-05 22:29 | 38.51347 | 13.31194 | 34501 ft | 452 kts | 159° |
| 2026-05-05 22:29 | 38.48468 | 13.32822 | 34265 ft | 453 kts | 159° |
| 2026-05-05 22:29 | 38.45589 | 13.34451 | 34021 ft | 453 kts | 159° |
| 2026-05-05 22:29 | 38.42704 | 13.36079 | 33746 ft | 454 kts | 159° |
| 2026-05-05 22:30 | 38.39813 | 13.37704 | 33472 ft | 454 kts | 159° |
| 2026-05-05 22:30 | 38.36916 | 13.39330 | 33202 ft | 455 kts | 159° |
| 2026-05-05 22:30 | 38.34014 | 13.40961 | 32924 ft | 456 kts | 159° |
| 2026-05-05 22:30 | 38.31146 | 13.42700 | 32659 ft | 459 kts | 152° |
| 2026-05-05 22:31 | 38.28622 | 13.45222 | 32402 ft | 466 kts | 136° |
| 2026-05-05 22:31 | 38.26505 | 13.48367 | 32146 ft | 469 kts | 132° |
| 2026-05-05 22:31 | 38.24424 | 13.51573 | 31885 ft | 471 kts | 132° |
| 2026-05-05 22:31 | 38.22340 | 13.54803 | 31633 ft | 473 kts | 132° |
| 2026-05-05 22:32 | 38.20253 | 13.58044 | 31379 ft | 474 kts | 131° |
| 2026-05-05 22:32 | 38.18158 | 13.61294 | 31121 ft | 475 kts | 132° |
| 2026-05-05 22:32 | 38.16055 | 13.64545 | 30140 ft | 480 kts | 132° |
| 2026-05-05 22:32 | 38.13913 | 13.67841 | 28726 ft | 488 kts | 132° |
| 2026-05-05 22:33 | 38.11732 | 13.71183 | 27360 ft | 494 kts | 132° |
| 2026-05-05 22:33 | 38.09530 | 13.74553 | 26338 ft | 494 kts | 131° |
| 2026-05-05 22:33 | 38.07348 | 13.77896 | 25477 ft | 489 kts | 131° |
| 2026-05-05 22:33 | 38.05186 | 13.81212 | 24602 ft | 486 kts | 131° |
| 2026-05-05 22:34 | 38.03036 | 13.84503 | 23727 ft | 482 kts | 131° |
| 2026-05-05 22:34 | 38.00903 | 13.87759 | 22807 ft | 478 kts | 131° |
| 2026-05-05 22:34 | 37.98790 | 13.90982 | 22016 ft | 472 kts | 131° |
| 2026-05-05 22:34 | 37.96704 | 13.94166 | 21227 ft | 467 kts | 132° |
| 2026-05-05 22:35 | 37.94641 | 13.97314 | 20482 ft | 462 kts | 132° |
| 2026-05-05 22:35 | 37.92602 | 14.00427 | 19753 ft | 456 kts | 132° |
| 2026-05-05 22:35 | 37.90587 | 14.03504 | 19061 ft | 452 kts | 132° |
| 2026-05-05 22:35 | 37.88588 | 14.06550 | 18397 ft | 447 kts | 132° |
| 2026-05-05 22:36 | 37.86610 | 14.09551 | 17704 ft | 441 kts | 133° |
| 2026-05-05 22:36 | 37.84657 | 14.12508 | 17097 ft | 434 kts | 133° |
| 2026-05-05 22:36 | 37.82734 | 14.15416 | 16517 ft | 427 kts | 133° |
| 2026-05-05 22:36 | 37.80847 | 14.18274 | 15938 ft | 420 kts | 133° |
| 2026-05-05 22:37 | 37.78983 | 14.21096 | 15364 ft | 415 kts | 132° |
| 2026-05-05 22:37 | 37.77139 | 14.23886 | 14749 ft | 412 kts | 132° |
| 2026-05-05 22:37 | 37.75318 | 14.26635 | 14230 ft | 401 kts | 132° |
| 2026-05-05 22:37 | 37.73548 | 14.29308 | 13177 ft | 393 kts | 132° |
| 2026-05-05 22:38 | 37.71807 | 14.31932 | 12068 ft | 387 kts | 132° |
| 2026-05-05 22:38 | 37.70090 | 14.34513 | 10991 ft | 380 kts | 131° |
| 2026-05-05 22:38 | 37.68397 | 14.37059 | 10075 ft | 379 kts | 131° |
| 2026-05-05 22:38 | 37.66757 | 14.39525 | 9798 ft | 352 kts | 131° |
| 2026-05-05 22:39 | 37.65254 | 14.41794 | 9652 ft | 323 kts | 131° |
| 2026-05-05 22:39 | 37.63870 | 14.43883 | 9393 ft | 301 kts | 131° |
| 2026-05-05 22:39 | 37.62544 | 14.45877 | 8821 ft | 294 kts | 131° |
| 2026-05-05 22:39 | 37.61417 | 14.48015 | 8444 ft | 293 kts | 114° |
| 2026-05-05 22:40 | 37.60721 | 14.50418 | 8059 ft | 290 kts | 110° |
| 2026-05-05 22:40 | 37.60061 | 14.52812 | 7676 ft | 288 kts | 110° |
| 2026-05-05 22:40 | 37.59411 | 14.55191 | 7293 ft | 285 kts | 110° |
| 2026-05-05 22:40 | 37.58768 | 14.57547 | 6907 ft | 283 kts | 110° |
| 2026-05-05 22:41 | 37.57953 | 14.59771 | 6513 ft | 278 kts | 127° |
| 2026-05-05 22:41 | 37.56590 | 14.61428 | 6109 ft | 271 kts | 149° |
| 2026-05-05 22:41 | 37.54871 | 14.62307 | 5691 ft | 266 kts | 166° |
| 2026-05-05 22:41 | 37.53083 | 14.62885 | 5266 ft | 264 kts | 166° |
| 2026-05-05 22:42 | 37.51322 | 14.63447 | 5022 ft | 255 kts | 166° |
| 2026-05-05 22:42 | 37.49660 | 14.63976 | 5016 ft | 238 kts | 166° |
| 2026-05-05 22:42 | 37.48111 | 14.64471 | 5016 ft | 222 kts | 166° |
| 2026-05-05 22:42 | 37.46657 | 14.64937 | 5011 ft | 212 kts | 166° |
| 2026-05-05 22:43 | 37.45269 | 14.65538 | 5017 ft | 212 kts | 150° |
| 2026-05-05 22:43 | 37.44175 | 14.66765 | 5017 ft | 213 kts | 126° |
| 2026-05-05 22:43 | 37.43578 | 14.68470 | 5014 ft | 216 kts | 102° |
| 2026-05-05 22:43 | 37.43571 | 14.70364 | 5015 ft | 219 kts | 85° |
| 2026-05-05 22:44 | 37.43744 | 14.72272 | 5013 ft | 220 kts | 86° |
| 2026-05-05 22:44 | 37.43910 | 14.74182 | 5013 ft | 220 kts | 86° |
| 2026-05-05 22:44 | 37.44077 | 14.76120 | 4716 ft | 224 kts | 86° |
| 2026-05-05 22:44 | 37.44245 | 14.78072 | 4390 ft | 225 kts | 86° |
| 2026-05-05 22:45 | 37.44413 | 14.80041 | 4066 ft | 227 kts | 85° |
| 2026-05-05 22:45 | 37.44580 | 14.81998 | 3750 ft | 221 kts | 85° |
| 2026-05-05 22:45 | 37.44741 | 14.83889 | 3460 ft | 213 kts | 85° |
| 2026-05-05 22:45 | 37.44898 | 14.85716 | 3178 ft | 207 kts | 85° |
| 2026-05-05 22:46 | 37.45051 | 14.87486 | 2905 ft | 199 kts | 85° |
| 2026-05-05 22:46 | 37.45197 | 14.89163 | 2653 ft | 186 kts | 84° |
| 2026-05-05 22:46 | 37.45333 | 14.90726 | 2399 ft | 172 kts | 84° |
| 2026-05-05 22:46 | 37.45457 | 14.92168 | 2159 ft | 159 kts | 84° |
| 2026-05-05 22:47 | 37.45532 | 14.93048 | 2037 ft | 148 kts | 84° |
| 2026-05-05 22:47 | 37.45640 | 14.94305 | 1827 ft | 139 kts | 83° |
| 2026-05-05 22:47 | 37.45740 | 14.95484 | 1636 ft | 136 kts | 83° |
| 2026-05-05 22:47 | 37.45839 | 14.96660 | 1450 ft | 135 kts | 84° |
| 2026-05-05 22:48 | 37.45938 | 14.97846 | 1268 ft | 134 kts | 83° |
| 2026-05-05 22:48 | 37.46035 | 14.99011 | 1088 ft | 134 kts | 83° |
| 2026-05-05 22:48 | 37.46130 | 15.00172 | 916 ft | 133 kts | 83° |
| 2026-05-05 22:48 | 37.46226 | 15.01327 | 743 ft | 132 kts | 82° |
| 2026-05-05 22:49 | 37.46330 | 15.02473 | 560 ft | 131 kts | 83° |
| 2026-05-05 22:49 | 37.46419 | 15.03612 | 328 ft | 130 kts | 82° |
| 2026-05-05 22:49 | 37.46516 | 15.04737 | 176 ft | 129 kts | 81° |
| 2026-05-05 22:49 | 37.46612 | 15.05853 | 38 ft | 122 kts | 82° |
| 2026-05-05 22:50 | 37.46688 | 15.06746 | 29 ft | 79 kts | 84° |
| 2026-05-05 22:50 | 37.46729 | 15.07235 | 25 ft | 42 kts | 84° |
| 2026-05-05 22:50 | 37.46754 | 15.07493 | 27 ft | 23 kts | 81° |
| 2026-05-05 22:50 | 37.46810 | 15.07684 | 27 ft | 20 kts | 60° |
| 2026-05-05 22:51 | 37.46858 | 15.07777 | 24 ft | 11 kts | 53° |
| 2026-05-05 22:51 | 37.46929 | 15.07785 | 25 ft | 12 kts | 310° |
| 2026-05-05 22:51 | 37.46933 | 15.07696 | 26 ft | 9 kts | 264° |
| 2026-05-05 22:51 | 37.46928 | 15.07630 | 27 ft | 7 kts | 264° |
| 2026-05-05 22:52 | 37.46923 | 15.07577 | 27 ft | 6 kts | 264° |
| 2026-05-05 22:52 | 37.46919 | 15.07526 | 27 ft | 8 kts | 264° |
| 2026-05-05 22:52 | 37.46910 | 15.07422 | 27 ft | 16 kts | 264° |
| 2026-05-05 22:52 | 37.46897 | 15.07268 | 28 ft | 21 kts | 264° |
| 2026-05-05 22:53 | 37.46880 | 15.07064 | 28 ft | 25 kts | 264° |
| 2026-05-05 22:53 | 37.46864 | 15.06871 | 28 ft | 21 kts | 264° |
| 2026-05-05 22:53 | 37.46850 | 15.06715 | 28 ft | 15 kts | 264° |
| 2026-05-05 22:53 | 37.46840 | 15.06577 | 28 ft | 18 kts | 265° |
| 2026-05-05 22:54 | 37.46833 | 15.06453 | 27 ft | 0 kts | 266° |
| 2026-05-05 22:54 | 37.46833 | 15.06444 | 27 ft | 3 kts | 279° |
| 2026-05-05 22:54 | 37.46843 | 15.06461 | 27 ft | 5 kts | 74° |
| 2026-05-05 22:54 | 37.46878 | 15.06498 | 26 ft | 9 kts | 19° |
| 2026-05-05 22:55 | 37.46930 | 15.06519 | 26 ft | 6 kts | 18° |
| 2026-05-05 22:55 | 37.46947 | 15.06527 | 26 ft | 0 kts | 19° |